sensor_id;sensor_type;location;lat;lon;timestamp;pressure;altitude;pressure_sealevel;temperature;humidity
76024;BME280;64719;52.124;6.226;2023-03-23T00:01:46;100383.78;;;10.77;100.00
76024;BME280;64719;52.124;6.226;2023-03-23T00:04:15;100380.19;;;10.71;100.00
76024;BME280;64719;52.124;6.226;2023-03-23T00:06:43;100375.00;;;10.70;100.00
76024;BME280;64719;52.124;6.226;2023-03-23T00:09:11;100380.06;;;10.66;100.00
76024;BME280;64719;52.124;6.226;2023-03-23T00:11:38;100376.25;;;10.79;100.00
76024;BME280;64719;52.124;6.226;2023-03-23T00:14:05;100377.22;;;10.73;100.00
76024;BME280;64719;52.124;6.226;2023-03-23T00:16:38;100372.41;;;10.63;100.00
76024;BME280;64719;52.124;6.226;2023-03-23T00:19:07;100366.25;;;10.68;100.00
76024;BME280;64719;52.124;6.226;2023-03-23T00:21:36;100364.28;;;10.63;100.00
76024;BME280;64719;52.124;6.226;2023-03-23T00:24:07;100371.94;;;10.66;100.00
76024;BME280;64719;52.124;6.226;2023-03-23T00:26:35;100370.97;;;10.72;100.00
76024;BME280;64719;52.124;6.226;2023-03-23T00:29:06;100360.28;;;10.66;100.00
76024;BME280;64719;52.124;6.226;2023-03-23T00:31:33;100365.72;;;10.66;100.00
76024;BME280;64719;52.124;6.226;2023-03-23T00:34:02;100364.03;;;10.65;100.00
76024;BME280;64719;52.124;6.226;2023-03-23T00:36:29;100365.22;;;10.69;100.00
76024;BME280;64719;52.124;6.226;2023-03-23T00:38:56;100363.66;;;10.73;100.00
76024;BME280;64719;52.124;6.226;2023-03-23T00:41:26;100361.66;;;10.68;100.00
76024;BME280;64719;52.124;6.226;2023-03-23T00:43:54;100358.22;;;10.73;100.00
76024;BME280;64719;52.124;6.226;2023-03-23T00:46:21;100359.44;;;10.65;100.00
76024;BME280;64719;52.124;6.226;2023-03-23T00:48:48;100371.19;;;10.71;100.00
76024;BME280;64719;52.124;6.226;2023-03-23T00:51:16;100361.03;;;10.78;99.92
76024;BME280;64719;52.124;6.226;2023-03-23T00:53:43;100368.72;;;10.69;100.00
76024;BME280;64719;52.124;6.226;2023-03-23T00:56:10;100374.00;;;10.76;100.00
76024;BME280;64719;52.124;6.226;2023-03-23T00:58:38;100363.50;;;10.79;99.98
76024;BME280;64719;52.124;6.226;2023-03-23T01:01:05;100369.00;;;10.84;99.77
76024;BME280;64719;52.124;6.226;2023-03-23T01:03:32;100366.78;;;10.81;99.82
76024;BME280;64719;52.124;6.226;2023-03-23T01:06:04;100363.81;;;10.83;99.54
76024;BME280;64719;52.124;6.226;2023-03-23T01:08:31;100361.84;;;10.78;99.52
76024;BME280;64719;52.124;6.226;2023-03-23T01:11:02;100364.97;;;10.70;100.00
76024;BME280;64719;52.124;6.226;2023-03-23T01:13:29;100343.09;;;10.77;99.82
76024;BME280;64719;52.124;6.226;2023-03-23T01:15:57;100345.25;;;10.75;99.83
76024;BME280;64719;52.124;6.226;2023-03-23T01:18:24;100335.03;;;10.65;100.00
76024;BME280;64719;52.124;6.226;2023-03-23T01:20:51;100311.19;;;10.67;100.00
76024;BME280;64719;52.124;6.226;2023-03-23T01:23:18;100295.66;;;10.63;100.00
76024;BME280;64719;52.124;6.226;2023-03-23T01:25:44;100288.16;;;10.70;100.00
76024;BME280;64719;52.124;6.226;2023-03-23T01:28:11;100278.03;;;10.65;100.00
76024;BME280;64719;52.124;6.226;2023-03-23T01:30:38;100284.06;;;10.67;100.00
76024;BME280;64719;52.124;6.226;2023-03-23T01:33:06;100278.03;;;10.65;100.00
76024;BME280;64719;52.124;6.226;2023-03-23T01:35:32;100282.09;;;10.63;100.00
76024;BME280;64719;52.124;6.226;2023-03-23T01:37:59;100291.13;;;10.68;100.00
76024;BME280;64719;52.124;6.226;2023-03-23T01:40:26;100295.31;;;10.59;100.00
76024;BME280;64719;52.124;6.226;2023-03-23T01:42:53;100259.69;;;10.56;100.00
76024;BME280;64719;52.124;6.226;2023-03-23T01:45:29;100254.13;;;10.62;100.00
76024;BME280;64719;52.124;6.226;2023-03-23T01:48:04;100245.38;;;10.60;100.00
76024;BME280;64719;52.124;6.226;2023-03-23T01:50:37;100259.63;;;10.67;100.00
76024;BME280;64719;52.124;6.226;2023-03-23T01:53:10;100233.56;;;10.66;99.92
76024;BME280;64719;52.124;6.226;2023-03-23T01:55:39;100241.13;;;10.64;99.83
76024;BME280;64719;52.124;6.226;2023-03-23T01:58:08;100228.22;;;10.71;99.64
76024;BME280;64719;52.124;6.226;2023-03-23T02:00:36;100239.41;;;10.58;100.00
76024;BME280;64719;52.124;6.226;2023-03-23T02:03:06;100244.75;;;10.53;100.00
76024;BME280;64719;52.124;6.226;2023-03-23T02:05:37;100234.47;;;10.55;100.00
76024;BME280;64719;52.124;6.226;2023-03-23T02:08:06;100241.69;;;10.50;100.00
76024;BME280;64719;52.124;6.226;2023-03-23T02:10:35;100243.50;;;10.61;100.00
76024;BME280;64719;52.124;6.226;2023-03-23T02:13:04;100251.16;;;10.64;100.00
76024;BME280;64719;52.124;6.226;2023-03-23T02:15:39;100245.88;;;10.57;100.00
76024;BME280;64719;52.124;6.226;2023-03-23T02:18:10;100242.38;;;10.57;100.00
76024;BME280;64719;52.124;6.226;2023-03-23T02:23:54;100246.22;;;10.61;100.00
76024;BME280;64719;52.124;6.226;2023-03-23T02:26:34;100236.75;;;10.63;100.00
76024;BME280;64719;52.124;6.226;2023-03-23T02:29:23;100230.28;;;10.64;100.00
76024;BME280;64719;52.124;6.226;2023-03-23T02:32:10;100224.03;;;10.64;100.00
76024;BME280;64719;52.124;6.226;2023-03-23T02:34:41;100214.56;;;10.66;100.00
76024;BME280;64719;52.124;6.226;2023-03-23T02:37:13;100220.22;;;10.65;99.91
76024;BME280;64719;52.124;6.226;2023-03-23T02:39:43;100230.84;;;10.66;99.90
76024;BME280;64719;52.124;6.226;2023-03-23T02:42:14;100218.19;;;10.72;99.76
76024;BME280;64719;52.124;6.226;2023-03-23T02:44:43;100221.41;;;10.69;100.00
76024;BME280;64719;52.124;6.226;2023-03-23T02:47:15;100225.84;;;10.75;99.76
76024;BME280;64719;52.124;6.226;2023-03-23T02:49:45;100219.91;;;10.78;99.89
76024;BME280;64719;52.124;6.226;2023-03-23T02:52:18;100237.19;;;10.88;99.55
76024;BME280;64719;52.124;6.226;2023-03-23T02:54:47;100225.31;;;10.94;99.05
76024;BME280;64719;52.124;6.226;2023-03-23T02:57:14;100229.50;;;11.02;98.60
76024;BME280;64719;52.124;6.226;2023-03-23T02:59:41;100234.84;;;10.97;98.89
76024;BME280;64719;52.124;6.226;2023-03-23T03:02:10;100221.91;;;11.04;98.39
76024;BME280;64719;52.124;6.226;2023-03-23T03:04:40;100224.31;;;11.00;98.70
76024;BME280;64719;52.124;6.226;2023-03-23T03:07:29;100222.00;;;11.09;98.37
76024;BME280;64719;52.124;6.226;2023-03-23T03:10:03;100215.47;;;11.10;98.13
76024;BME280;64719;52.124;6.226;2023-03-23T03:12:36;100213.78;;;11.04;98.40
76024;BME280;64719;52.124;6.226;2023-03-23T03:15:13;100218.69;;;11.07;98.11
76024;BME280;64719;52.124;6.226;2023-03-23T03:17:48;100217.31;;;11.04;98.32
76024;BME280;64719;52.124;6.226;2023-03-23T03:20:18;100227.75;;;11.13;97.84
76024;BME280;64719;52.124;6.226;2023-03-23T03:22:46;100229.00;;;11.05;98.22
76024;BME280;64719;52.124;6.226;2023-03-23T03:25:14;100234.50;;;11.10;98.11
76024;BME280;64719;52.124;6.226;2023-03-23T03:27:44;100229.63;;;11.12;97.66
76024;BME280;64719;52.124;6.226;2023-03-23T03:30:17;100221.31;;;11.19;97.41
76024;BME280;64719;52.124;6.226;2023-03-23T03:32:48;100217.16;;;11.11;97.48
76024;BME280;64719;52.124;6.226;2023-03-23T03:35:16;100210.88;;;11.10;97.28
76024;BME280;64719;52.124;6.226;2023-03-23T03:37:43;100210.88;;;11.10;97.17
76024;BME280;64719;52.124;6.226;2023-03-23T03:40:13;100215.69;;;11.03;97.63
76024;BME280;64719;52.124;6.226;2023-03-23T03:42:42;100223.00;;;11.03;97.42
76024;BME280;64719;52.124;6.226;2023-03-23T03:45:11;100217.44;;;11.14;97.29
76024;BME280;64719;52.124;6.226;2023-03-23T03:47:38;100219.16;;;11.21;96.87
76024;BME280;64719;52.124;6.226;2023-03-23T03:50:06;100210.13;;;11.15;96.90
76024;BME280;64719;52.124;6.226;2023-03-23T03:52:33;100210.31;;;11.08;97.81
76024;BME280;64719;52.124;6.226;2023-03-23T03:55:00;100210.00;;;11.05;98.06
76024;BME280;64719;52.124;6.226;2023-03-23T03:57:28;100207.78;;;11.02;99.16
76024;BME280;64719;52.124;6.226;2023-03-23T03:59:55;100214.47;;;10.94;99.99
76024;BME280;64719;52.124;6.226;2023-03-23T04:02:21;100215.50;;;10.93;100.00
76024;BME280;64719;52.124;6.226;2023-03-23T04:04:49;100204.09;;;10.91;100.00
76024;BME280;64719;52.124;6.226;2023-03-23T04:07:17;100203.19;;;10.86;100.00
76024;BME280;64719;52.124;6.226;2023-03-23T04:09:45;100211.78;;;10.78;100.00
76024;BME280;64719;52.124;6.226;2023-03-23T04:12:12;100217.19;;;10.78;100.00
76024;BME280;64719;52.124;6.226;2023-03-23T04:14:40;100210.78;;;10.84;100.00
76024;BME280;64719;52.124;6.226;2023-03-23T04:17:07;100214.00;;;10.81;100.00
76024;BME280;64719;52.124;6.226;2023-03-23T04:19:34;100214.16;;;10.74;100.00
76024;BME280;64719;52.124;6.226;2023-03-23T04:22:02;100219.91;;;10.78;100.00
76024;BME280;64719;52.124;6.226;2023-03-23T04:24:29;100211.28;;;10.81;100.00
76024;BME280;64719;52.124;6.226;2023-03-23T04:26:57;100210.13;;;10.77;100.00
76024;BME280;64719;52.124;6.226;2023-03-23T04:29:23;100207.47;;;10.82;100.00
76024;BME280;64719;52.124;6.226;2023-03-23T04:31:51;100206.56;;;10.93;100.00
76024;BME280;64719;52.124;6.226;2023-03-23T04:34:20;100196.13;;;10.85;100.00
76024;BME280;64719;52.124;6.226;2023-03-23T04:36:47;100202.38;;;10.85;99.72
76024;BME280;64719;52.124;6.226;2023-03-23T04:39:13;100206.41;;;10.83;99.66
76024;BME280;64719;52.124;6.226;2023-03-23T04:41:41;100202.38;;;10.85;99.49
76024;BME280;64719;52.124;6.226;2023-03-23T04:44:09;100212.56;;;10.78;99.50
76024;BME280;64719;52.124;6.226;2023-03-23T04:46:36;100207.47;;;10.82;99.52
76024;BME280;64719;52.124;6.226;2023-03-23T04:49:05;100216.00;;;10.90;99.25
76024;BME280;64719;52.124;6.226;2023-03-23T04:51:31;100223.66;;;10.93;98.74
76024;BME280;64719;52.124;6.226;2023-03-23T04:53:58;100222.09;;;10.97;98.66
76024;BME280;64719;52.124;6.226;2023-03-23T04:56:25;100222.75;;;11.04;98.24
76024;BME280;64719;52.124;6.226;2023-03-23T04:58:51;100222.09;;;10.97;98.44
76024;BME280;64719;52.124;6.226;2023-03-23T05:01:17;100221.91;;;11.04;98.12
76024;BME280;64719;52.124;6.226;2023-03-23T05:03:44;100228.44;;;11.03;98.23
76024;BME280;64719;52.124;6.226;2023-03-23T05:06:12;100226.34;;;11.10;97.88
76024;BME280;64719;52.124;6.226;2023-03-23T05:08:38;100231.28;;;11.13;97.58
76024;BME280;64719;52.124;6.226;2023-03-23T05:11:05;100223.13;;;11.13;97.67
76024;BME280;64719;52.124;6.226;2023-03-23T05:13:33;100221.06;;;11.20;97.16
76024;BME280;64719;52.124;6.226;2023-03-23T05:16:03;100234.25;;;11.11;96.89
76024;BME280;64719;52.124;6.226;2023-03-23T05:18:29;100235.56;;;11.09;97.30
76024;BME280;64719;52.124;6.226;2023-03-23T05:20:59;100225.59;;;11.14;96.85
76024;BME280;64719;52.124;6.226;2023-03-23T05:23:27;100228.72;;;11.23;96.39
76024;BME280;64719;52.124;6.226;2023-03-23T05:25:57;100233.50;;;11.16;96.33
76024;BME280;64719;52.124;6.226;2023-03-23T05:28:25;100237.03;;;11.17;95.92
76024;BME280;64719;52.124;6.226;2023-03-23T05:30:52;100231.78;;;11.10;95.97
76024;BME280;64719;52.124;6.226;2023-03-23T05:33:19;100240.25;;;11.13;95.89
76024;BME280;64719;52.124;6.226;2023-03-23T05:35:45;100247.97;;;11.22;95.28
76024;BME280;64719;52.124;6.226;2023-03-23T05:38:13;100246.50;;;11.14;95.25
76024;BME280;64719;52.124;6.226;2023-03-23T05:40:42;100248.97;;;11.16;95.06
76024;BME280;64719;52.124;6.226;2023-03-23T05:43:09;100245.75;;;11.19;94.74
76024;BME280;64719;52.124;6.226;2023-03-23T05:45:36;100242.06;;;11.25;94.03
76024;BME280;64719;52.124;6.226;2023-03-23T05:48:04;100240.97;;;11.26;93.48
76024;BME280;64719;52.124;6.226;2023-03-23T05:50:30;100238.25;;;11.26;93.26
76024;BME280;64719;52.124;6.226;2023-03-23T05:52:57;100245.91;;;11.29;93.37
76024;BME280;64719;52.124;6.226;2023-03-23T05:55:23;100244.94;;;11.18;93.81
76024;BME280;64719;52.124;6.226;2023-03-23T05:57:51;100252.91;;;11.25;93.49
76024;BME280;64719;52.124;6.226;2023-03-23T06:00:19;100250.69;;;11.22;93.35
76024;BME280;64719;52.124;6.226;2023-03-23T06:02:48;100251.25;;;11.24;93.24
76024;BME280;64719;52.124;6.226;2023-03-23T06:05:16;100252.81;;;11.20;93.70
76024;BME280;64719;52.124;6.226;2023-03-23T06:07:43;100261.59;;;11.27;93.34
76024;BME280;64719;52.124;6.226;2023-03-23T06:10:09;100259.72;;;11.27;93.26
76024;BME280;64719;52.124;6.226;2023-03-23T06:12:36;100263.41;;;11.38;92.84
76024;BME280;64719;52.124;6.226;2023-03-23T06:15:06;100258.94;;;11.48;92.47
76024;BME280;64719;52.124;6.226;2023-03-23T06:17:34;100266.63;;;11.73;91.73
76024;BME280;64719;52.124;6.226;2023-03-23T06:20:01;100265.69;;;11.84;91.08
76024;BME280;64719;52.124;6.226;2023-03-23T06:22:29;100275.41;;;11.80;91.03
76024;BME280;64719;52.124;6.226;2023-03-23T06:24:56;100275.59;;;11.73;90.64
76024;BME280;64719;52.124;6.226;2023-03-23T06:27:23;100274.53;;;11.74;91.14
76024;BME280;64719;52.124;6.226;2023-03-23T06:29:49;100276.22;;;11.80;90.68
76024;BME280;64719;52.124;6.226;2023-03-23T06:32:17;100277.31;;;11.79;90.74
76024;BME280;64719;52.124;6.226;2023-03-23T06:34:44;100282.25;;;11.82;90.45
76024;BME280;64719;52.124;6.226;2023-03-23T06:37:11;100286.97;;;11.92;90.40
76024;BME280;64719;52.124;6.226;2023-03-23T06:39:38;100285.69;;;11.99;89.75
76024;BME280;64719;52.124;6.226;2023-03-23T06:42:04;100281.94;;;12.05;89.44
76024;BME280;64719;52.124;6.226;2023-03-23T06:44:35;100288.53;;;12.09;89.16
76024;BME280;64719;52.124;6.226;2023-03-23T06:47:01;100283.88;;;12.05;90.06
76024;BME280;64719;52.124;6.226;2023-03-23T06:49:30;100299.53;;;11.98;90.58
76024;BME280;64719;52.124;6.226;2023-03-23T06:51:56;100285.94;;;11.98;89.58
76024;BME280;64719;52.124;6.226;2023-03-23T06:54:25;100292.41;;;11.92;89.94
76024;BME280;64719;52.124;6.226;2023-03-23T06:56:52;100278.25;;;11.90;89.60
76024;BME280;64719;52.124;6.226;2023-03-23T06:59:18;100290.41;;;11.82;90.08
76024;BME280;64719;52.124;6.226;2023-03-23T07:01:45;100292.53;;;11.80;90.54
76024;BME280;64719;52.124;6.226;2023-03-23T07:04:13;100301.69;;;11.74;90.97
76024;BME280;64719;52.124;6.226;2023-03-23T07:06:42;100310.94;;;11.73;91.42
76024;BME280;64719;52.124;6.226;2023-03-23T07:09:09;100311.25;;;11.77;90.97
76024;BME280;64719;52.124;6.226;2023-03-23T07:11:35;100320.47;;;11.76;90.77
76024;BME280;64719;52.124;6.226;2023-03-23T07:14:02;100321.19;;;11.88;89.75
76024;BME280;64719;52.124;6.226;2023-03-23T07:16:29;100314.53;;;11.79;90.05
76024;BME280;64719;52.124;6.226;2023-03-23T07:18:56;100319.72;;;11.80;89.80
76024;BME280;64719;52.124;6.226;2023-03-23T07:21:22;100323.28;;;11.81;89.82
76024;BME280;64719;52.124;6.226;2023-03-23T07:23:50;100325.75;;;11.82;89.65
76024;BME280;64719;52.124;6.226;2023-03-23T07:26:17;100334.69;;;11.83;89.73
76024;BME280;64719;52.124;6.226;2023-03-23T07:28:43;100326.44;;;11.94;89.22
76024;BME280;64719;52.124;6.226;2023-03-23T07:31:11;100317.63;;;12.09;88.67
76024;BME280;64719;52.124;6.226;2023-03-23T07:33:37;100328.00;;;12.38;87.96
76024;BME280;64719;52.124;6.226;2023-03-23T07:36:05;100329.91;;;12.91;86.48
76024;BME280;64719;52.124;6.226;2023-03-23T07:38:33;100337.56;;;12.94;84.99
76024;BME280;64719;52.124;6.226;2023-03-23T07:41:01;100328.84;;;12.65;85.69
76024;BME280;64719;52.124;6.226;2023-03-23T07:43:28;100339.97;;;12.64;86.21
76024;BME280;64719;52.124;6.226;2023-03-23T07:45:54;100344.81;;;12.83;85.84
76024;BME280;64719;52.124;6.226;2023-03-23T07:48:21;100346.16;;;13.08;83.74
76024;BME280;64719;52.124;6.226;2023-03-23T07:50:48;100343.31;;;13.29;83.40
76024;BME280;64719;52.124;6.226;2023-03-23T07:53:15;100351.03;;;13.06;84.37
76024;BME280;64719;52.124;6.226;2023-03-23T07:55:41;100357.16;;;12.64;86.09
76024;BME280;64719;52.124;6.226;2023-03-23T07:58:09;100356.06;;;12.39;86.20
76024;BME280;64719;52.124;6.226;2023-03-23T08:00:36;100366.09;;;12.38;87.07
76024;BME280;64719;52.124;6.226;2023-03-23T08:03:05;100360.38;;;12.35;86.65
76024;BME280;64719;52.124;6.226;2023-03-23T08:05:32;100386.25;;;12.37;85.39
76024;BME280;64719;52.124;6.226;2023-03-23T08:07:59;100369.59;;;12.34;85.35
76024;BME280;64719;52.124;6.226;2023-03-23T08:10:26;100369.50;;;12.24;85.62
76024;BME280;64719;52.124;6.226;2023-03-23T08:12:55;100377.81;;;12.17;84.44
76024;BME280;64719;52.124;6.226;2023-03-23T08:15:23;100374.81;;;12.14;84.05
76024;BME280;64719;52.124;6.226;2023-03-23T08:17:50;100380.81;;;12.16;85.26
76024;BME280;64719;52.124;6.226;2023-03-23T08:20:17;100386.00;;;12.17;84.59
76024;BME280;64719;52.124;6.226;2023-03-23T08:22:48;100387.66;;;12.18;83.09
76024;BME280;64719;52.124;6.226;2023-03-23T08:25:15;100396.09;;;12.22;82.39
76024;BME280;64719;52.124;6.226;2023-03-23T08:27:43;100403.69;;;12.41;83.56
76024;BME280;64719;52.124;6.226;2023-03-23T08:30:11;100392.00;;;12.41;82.95
76024;BME280;64719;52.124;6.226;2023-03-23T08:32:39;100406.34;;;12.58;83.26
76024;BME280;64719;52.124;6.226;2023-03-23T08:35:07;100405.56;;;12.62;82.50
76024;BME280;64719;52.124;6.226;2023-03-23T08:37:34;100401.56;;;12.70;82.26
76024;BME280;64719;52.124;6.226;2023-03-23T08:40:01;100403.25;;;12.76;83.59
76024;BME280;64719;52.124;6.226;2023-03-23T08:42:32;100397.59;;;13.04;84.10
76024;BME280;64719;52.124;6.226;2023-03-23T08:45:00;100399.22;;;12.78;83.32
76024;BME280;64719;52.124;6.226;2023-03-23T08:47:26;100423.81;;;12.62;84.67
76024;BME280;64719;52.124;6.226;2023-03-23T08:49:54;100431.56;;;12.48;85.89
76024;BME280;64719;52.124;6.226;2023-03-23T08:52:20;100421.47;;;12.49;86.08
76024;BME280;64719;52.124;6.226;2023-03-23T08:54:47;100426.53;;;12.62;86.24
76024;BME280;64719;52.124;6.226;2023-03-23T08:57:14;100414.47;;;12.79;86.52
76024;BME280;64719;52.124;6.226;2023-03-23T08:59:41;100405.47;;;12.79;85.23
76024;BME280;64719;52.124;6.226;2023-03-23T09:02:09;100418.53;;;12.77;85.88
76024;BME280;64719;52.124;6.226;2023-03-23T09:04:37;100423.13;;;12.50;86.44
76024;BME280;64719;52.124;6.226;2023-03-23T09:07:04;100435.50;;;12.62;86.65
76024;BME280;64719;52.124;6.226;2023-03-23T09:09:31;100431.50;;;12.70;85.72
76024;BME280;64719;52.124;6.226;2023-03-23T09:11:59;100441.75;;;12.84;85.26
76024;BME280;64719;52.124;6.226;2023-03-23T09:14:26;100430.25;;;13.31;84.62
76024;BME280;64719;52.124;6.226;2023-03-23T09:16:52;100438.38;;;12.99;83.64
76024;BME280;64719;52.124;6.226;2023-03-23T09:19:19;100434.97;;;12.87;85.04
76024;BME280;64719;52.124;6.226;2023-03-23T09:21:46;100437.88;;;12.80;85.03
76024;BME280;64719;52.124;6.226;2023-03-23T09:24:15;100428.50;;;12.93;84.48
76024;BME280;64719;52.124;6.226;2023-03-23T09:26:42;100433.31;;;13.08;83.19
76024;BME280;64719;52.124;6.226;2023-03-23T09:29:09;100434.38;;;13.07;82.01
76024;BME280;64719;52.124;6.226;2023-03-23T09:31:36;100435.34;;;13.54;79.55
76024;BME280;64719;52.124;6.226;2023-03-23T09:34:03;100435.88;;;13.92;79.16
76024;BME280;64719;52.124;6.226;2023-03-23T09:36:31;100443.53;;;14.37;76.83
76024;BME280;64719;52.124;6.226;2023-03-23T09:38:58;100439.16;;;14.31;76.10
76024;BME280;64719;52.124;6.226;2023-03-23T09:44:24;100442.13;;;14.96;73.45
76024;BME280;64719;52.124;6.226;2023-03-23T09:46:58;100445.31;;;14.73;73.67
76024;BME280;64719;52.124;6.226;2023-03-23T09:49:30;100452.13;;;14.65;73.76
76024;BME280;64719;52.124;6.226;2023-03-23T09:52:01;100449.28;;;15.57;72.62
76024;BME280;64719;52.124;6.226;2023-03-23T09:54:33;100458.50;;;16.26;68.91
76024;BME280;64719;52.124;6.226;2023-03-23T09:57:04;100465.09;;;16.15;69.02
76024;BME280;64719;52.124;6.226;2023-03-23T09:59:36;100461.03;;;16.87;65.58
76024;BME280;64719;52.124;6.226;2023-03-23T10:02:12;100461.28;;;16.11;65.34
76024;BME280;64719;52.124;6.226;2023-03-23T10:04:44;100459.03;;;18.32;60.04
76024;BME280;64719;52.124;6.226;2023-03-23T10:07:13;100456.03;;;20.59;55.05
76024;BME280;64719;52.124;6.226;2023-03-23T10:09:42;100458.47;;;20.34;54.99
76024;BME280;64719;52.124;6.226;2023-03-23T10:12:18;100464.47;;;19.76;54.36
76024;BME280;64719;52.124;6.226;2023-03-23T10:14:54;100471.63;;;19.91;54.74
76024;BME280;64719;52.124;6.226;2023-03-23T10:17:28;100472.34;;;21.45;50.38
76024;BME280;64719;52.124;6.226;2023-03-23T10:20:05;100466.03;;;18.19;56.07
76024;BME280;64719;52.124;6.226;2023-03-23T10:22:40;100473.75;;;22.70;48.87
76024;BME280;64719;52.124;6.226;2023-03-23T10:25:15;100476.38;;;23.31;42.69
76024;BME280;64719;52.124;6.226;2023-03-23T10:27:48;100470.13;;;18.21;53.17
76024;BME280;64719;52.124;6.226;2023-03-23T10:30:20;100458.06;;;20.81;48.37
76024;BME280;64719;52.124;6.226;2023-03-23T10:32:52;100473.25;;;18.62;51.69
76024;BME280;64719;52.124;6.226;2023-03-23T10:35:25;100472.06;;;17.20;56.40
76024;BME280;64719;52.124;6.226;2023-03-23T10:37:56;100481.75;;;18.42;55.24
76024;BME280;64719;52.124;6.226;2023-03-23T10:40:28;100479.47;;;22.74;44.94
76024;BME280;64719;52.124;6.226;2023-03-23T10:42:57;100474.09;;;24.39;39.15
76024;BME280;64719;52.124;6.226;2023-03-23T10:45:26;100477.72;;;19.56;50.11
76024;BME280;64719;52.124;6.226;2023-03-23T10:47:56;100485.75;;;22.57;44.58
76024;BME280;64719;52.124;6.226;2023-03-23T10:50:28;100470.75;;;24.63;39.34
76024;BME280;64719;52.124;6.226;2023-03-23T10:52:58;100488.09;;;25.80;37.30
76024;BME280;64719;52.124;6.226;2023-03-23T10:55:36;100491.66;;;23.97;40.06
76024;BME280;64719;52.124;6.226;2023-03-23T10:58:06;100490.41;;;22.18;41.60
76024;BME280;64719;52.124;6.226;2023-03-23T11:00:40;100471.97;;;19.71;46.60
76024;BME280;64719;52.124;6.226;2023-03-23T11:03:24;100480.91;;;20.14;47.17
76024;BME280;64719;52.124;6.226;2023-03-23T11:05:54;100469.84;;;19.12;49.60
76024;BME280;64719;52.124;6.226;2023-03-23T11:08:24;100475.53;;;18.32;52.79
76024;BME280;64719;52.124;6.226;2023-03-23T11:10:54;100472.47;;;18.62;51.35
76024;BME280;64719;52.124;6.226;2023-03-23T11:13:28;100481.66;;;20.01;48.85
76024;BME280;64719;52.124;6.226;2023-03-23T11:15:55;100488.22;;;18.75;49.72
76024;BME280;64719;52.124;6.226;2023-03-23T11:18:24;100475.63;;;20.44;45.86
76024;BME280;64719;52.124;6.226;2023-03-23T11:20:53;100482.00;;;18.88;50.62
76024;BME280;64719;52.124;6.226;2023-03-23T11:23:23;100483.81;;;18.97;49.15
76024;BME280;64719;52.124;6.226;2023-03-23T11:25:57;100483.84;;;18.74;48.44
76024;BME280;64719;52.124;6.226;2023-03-23T11:28:30;100484.59;;;21.53;42.85
76024;BME280;64719;52.124;6.226;2023-03-23T11:30:58;100486.22;;;17.37;49.85
76024;BME280;64719;52.124;6.226;2023-03-23T11:33:29;100489.72;;;17.48;52.12
76024;BME280;64719;52.124;6.226;2023-03-23T11:35:56;100495.88;;;17.30;51.10
76024;BME280;64719;52.124;6.226;2023-03-23T11:38:23;100490.56;;;19.79;45.66
76024;BME280;64719;52.124;6.226;2023-03-23T11:40:52;100496.06;;;18.63;47.35
76024;BME280;64719;52.124;6.226;2023-03-23T11:43:21;100488.28;;;18.70;46.95
76024;BME280;64719;52.124;6.226;2023-03-23T11:45:58;100500.25;;;22.02;41.46
76024;BME280;64719;52.124;6.226;2023-03-23T11:48:34;100483.56;;;21.13;42.65
76024;BME280;64719;52.124;6.226;2023-03-23T11:51:08;100491.81;;;18.94;46.47
76024;BME280;64719;52.124;6.226;2023-03-23T11:53:45;100484.28;;;17.76;49.43
76024;BME280;64719;52.124;6.226;2023-03-23T11:56:17;100483.09;;;20.57;43.50
76024;BME280;64719;52.124;6.226;2023-03-23T11:58:45;100489.03;;;20.78;43.46
76024;BME280;64719;52.124;6.226;2023-03-23T12:01:21;100480.44;;;20.07;45.17
76024;BME280;64719;52.124;6.226;2023-03-23T12:03:58;100482.81;;;18.17;51.62
76024;BME280;64719;52.124;6.226;2023-03-23T12:06:35;100484.63;;;17.26;52.89
76024;BME280;64719;52.124;6.226;2023-03-23T12:09:15;100506.38;;;16.39;55.33
76024;BME280;64719;52.124;6.226;2023-03-23T12:11:57;100497.38;;;16.49;55.11
76024;BME280;64719;52.124;6.226;2023-03-23T12:14:33;100494.91;;;19.66;46.99
76024;BME280;64719;52.124;6.226;2023-03-23T12:17:17;100487.44;;;19.85;45.20
76024;BME280;64719;52.124;6.226;2023-03-23T12:19:54;100468.72;;;18.53;48.81
76024;BME280;64719;52.124;6.226;2023-03-23T12:22:35;100477.44;;;16.92;54.94
76024;BME280;64719;52.124;6.226;2023-03-23T12:25:14;100485.75;;;17.25;55.08
76024;BME280;64719;52.124;6.226;2023-03-23T12:27:47;100476.50;;;17.11;53.79
76024;BME280;64719;52.124;6.226;2023-03-23T12:30:20;100478.94;;;17.18;56.19
76024;BME280;64719;52.124;6.226;2023-03-23T12:32:58;100467.38;;;22.31;43.75
76024;BME280;64719;52.124;6.226;2023-03-23T12:35:34;100472.66;;;19.26;48.17
76024;BME280;64719;52.124;6.226;2023-03-23T12:38:13;100473.84;;;18.07;52.60
76024;BME280;64719;52.124;6.226;2023-03-23T12:41:01;100484.50;;;17.51;54.92
76024;BME280;64719;52.124;6.226;2023-03-23T12:43:37;100492.66;;;16.59;58.58
76024;BME280;64719;52.124;6.226;2023-03-23T12:46:16;100487.28;;;16.14;60.80
76024;BME280;64719;52.124;6.226;2023-03-23T12:48:47;100484.38;;;16.79;60.17
76024;BME280;64719;52.124;6.226;2023-03-23T12:51:19;100484.75;;;16.48;60.29
76024;BME280;64719;52.124;6.226;2023-03-23T12:53:53;100495.19;;;16.46;60.72
76024;BME280;64719;52.124;6.226;2023-03-23T12:56:26;100486.22;;;16.05;61.60
76024;BME280;64719;52.124;6.226;2023-03-23T12:58:59;100496.28;;;15.34;63.79
76024;BME280;64719;52.124;6.226;2023-03-23T13:01:30;100486.34;;;14.98;64.62
76024;BME280;64719;52.124;6.226;2023-03-23T13:04:05;100492.25;;;14.60;66.01
76024;BME280;64719;52.124;6.226;2023-03-23T13:06:36;100498.66;;;13.97;70.75